createdAt,value
2019-02-08T00:00:10.378Z,80.90
2019-02-08T00:02:42.684Z,81.20
2019-02-08T00:05:13.041Z,81.20
2019-02-08T00:07:43.400Z,81.10
2019-02-08T00:10:14.232Z,81.20
2019-02-08T00:12:44.806Z,81.30
2019-02-08T00:15:16.352Z,81.20
2019-02-08T00:17:46.690Z,81.40
2019-02-08T00:20:17.484Z,81.60
2019-02-08T00:22:47.994Z,81.50
2019-02-08T00:25:18.546Z,81.50
2019-02-08T00:27:48.912Z,81.60
2019-02-08T00:30:21.764Z,81.60
2019-02-08T00:32:52.065Z,81.50
2019-02-08T00:35:22.726Z,81.60
2019-02-08T00:37:54.416Z,81.50
2019-02-08T00:40:25.102Z,81.70
2019-02-08T00:42:55.438Z,81.70
2019-02-08T00:45:25.749Z,81.80
2019-02-08T00:47:56.088Z,82.10
2019-02-08T00:50:26.610Z,82.10
2019-02-08T00:52:57.074Z,82.20
2019-02-08T00:55:27.346Z,82.40
2019-02-08T00:57:58.121Z,82.30
2019-02-08T01:00:28.649Z,82.50
2019-02-08T01:02:58.952Z,83.20
2019-02-08T01:05:30.778Z,82.30
2019-02-08T01:08:02.785Z,82.50
2019-02-08T01:10:33.473Z,82.40
2019-02-08T01:13:04.072Z,82.50
2019-02-08T01:15:34.796Z,82.40
2019-02-08T01:18:05.552Z,82.50
2019-02-08T01:20:36.386Z,82.60
2019-02-08T01:23:06.715Z,82.60
2019-02-08T01:25:37.044Z,83.00
2019-02-08T01:28:07.462Z,83.10
2019-02-08T01:30:37.760Z,83.20
2019-02-08T01:33:08.118Z,83.30
2019-02-08T01:35:38.780Z,83.50
2019-02-08T01:38:10.470Z,83.40
2019-02-08T01:40:40.770Z,83.40
2019-02-08T01:43:11.088Z,83.60
2019-02-08T01:45:41.424Z,83.70
2019-02-08T01:48:11.836Z,84.30
2019-02-08T01:50:42.215Z,85.60
2019-02-08T01:53:13.610Z,86.60
2019-02-08T01:55:43.956Z,87.70
2019-02-08T01:58:14.340Z,88.20
2019-02-08T02:00:45.412Z,88.50
2019-02-08T02:03:15.822Z,88.80
2019-02-08T02:05:46.178Z,89.10
2019-02-08T02:08:18.106Z,89.30
2019-02-08T02:10:48.437Z,89.40
2019-02-08T02:13:18.736Z,89.60
2019-02-08T02:15:49.128Z,89.70
2019-02-08T02:18:19.420Z,89.70
2019-02-08T02:20:49.758Z,89.90
2019-02-08T02:23:20.244Z,90.00
2019-02-08T02:25:50.554Z,90.20
2019-02-08T02:28:20.860Z,90.30
2019-02-08T02:30:51.152Z,90.50
2019-02-08T02:33:21.571Z,90.90
2019-02-08T02:35:51.869Z,91.30
2019-02-08T02:38:23.720Z,91.50
2019-02-08T02:40:54.088Z,91.70
2019-02-08T02:43:24.461Z,91.80
2019-02-08T02:45:54.806Z,92.00
2019-02-08T02:48:25.166Z,92.30
2019-02-08T02:50:55.597Z,92.40
2019-02-08T02:53:25.949Z,92.80
2019-02-08T02:55:56.272Z,93.00
2019-02-08T02:58:26.595Z,93.10
2019-02-08T03:00:57.068Z,93.30
2019-02-08T03:03:27.389Z,93.40
2019-02-08T03:05:57.766Z,93.40
2019-02-08T03:08:29.414Z,93.50
2019-02-08T03:10:59.820Z,93.50
2019-02-08T03:13:30.136Z,93.60
2019-02-08T03:16:00.486Z,93.70
2019-02-08T03:18:30.808Z,93.80
2019-02-08T03:21:01.115Z,93.90
2019-02-08T03:23:31.477Z,93.90
2019-02-08T03:26:01.815Z,93.80
2019-02-08T03:28:32.245Z,93.80
2019-02-08T03:31:02.675Z,93.70
2019-02-08T03:33:33.050Z,93.80
2019-02-08T03:36:03.374Z,93.70
2019-02-08T03:38:35.071Z,93.70
2019-02-08T03:41:05.496Z,93.50
2019-02-08T03:43:35.848Z,93.30
2019-02-08T03:46:06.494Z,93.40
2019-02-08T03:48:36.892Z,94.00
2019-02-08T03:51:07.186Z,93.80
2019-02-08T03:53:37.524Z,93.90
2019-02-08T03:56:07.827Z,94.30
2019-02-08T03:58:38.204Z,94.50
2019-02-08T04:01:09.518Z,94.80
2019-02-08T04:03:43.461Z,95.00
2019-02-08T04:06:13.777Z,95.20
2019-02-08T04:08:44.082Z,95.30
2019-02-08T04:11:15.777Z,95.40
2019-02-08T04:13:46.338Z,95.40
2019-02-08T04:16:16.702Z,95.50
2019-02-08T04:18:47.089Z,95.60
2019-02-08T04:21:17.434Z,95.60
2019-02-08T04:23:47.798Z,95.70
2019-02-08T04:26:18.102Z,96.10
2019-02-08T04:28:48.448Z,95.90
2019-02-08T04:31:18.749Z,95.90
2019-02-08T04:33:49.081Z,95.90
2019-02-08T04:36:19.435Z,96.00
2019-02-08T04:38:49.748Z,96.00
2019-02-08T04:41:21.756Z,96.00
2019-02-08T04:43:52.135Z,96.00
2019-02-08T04:46:22.424Z,96.00
2019-02-08T04:48:52.744Z,96.10
2019-02-08T04:51:23.074Z,96.10
2019-02-08T04:53:53.424Z,96.20
2019-02-08T04:56:23.782Z,96.20
2019-02-08T04:58:54.108Z,96.30
2019-02-08T05:01:24.445Z,96.30
2019-02-08T05:03:54.796Z,96.30
2019-02-08T05:06:25.191Z,96.30
2019-02-08T05:08:55.546Z,96.30
2019-02-08T05:11:26.720Z,96.30
2019-02-08T05:13:57.026Z,96.20
2019-02-08T05:16:27.363Z,96.20
2019-02-08T05:18:57.657Z,96.30
2019-02-08T05:21:28.122Z,96.30
2019-02-08T05:23:58.467Z,96.50
2019-02-08T05:26:28.814Z,96.60
2019-02-08T05:28:59.147Z,96.60
2019-02-08T05:31:38.715Z,96.80
2019-02-08T05:34:09.013Z,96.80
2019-02-08T05:36:39.352Z,96.80
2019-02-08T05:39:11.057Z,96.90
2019-02-08T05:41:42.458Z,97.00
2019-02-08T05:44:13.944Z,97.10
2019-02-08T05:46:44.373Z,97.10
2019-02-08T05:49:14.690Z,97.10
2019-02-08T05:51:45.016Z,97.10
2019-02-08T05:54:15.369Z,97.10
2019-02-08T05:56:45.743Z,97.00
2019-02-08T05:59:16.146Z,97.00
2019-02-08T06:01:46.461Z,97.00
2019-02-08T06:04:17.189Z,96.90
2019-02-08T06:06:47.528Z,97.00
2019-02-08T06:09:17.941Z,97.00
2019-02-08T06:11:48.308Z,96.80
2019-02-08T06:14:18.679Z,96.70
2019-02-08T06:16:49.034Z,96.50
2019-02-08T06:19:19.406Z,96.40
2019-02-08T06:21:49.776Z,96.40
2019-02-08T06:24:20.113Z,96.30
2019-02-08T06:26:50.512Z,96.30
2019-02-08T06:29:20.881Z,96.20
2019-02-08T06:31:51.202Z,95.90
2019-02-08T06:34:21.590Z,95.90
2019-02-08T06:36:51.938Z,95.80
2019-02-08T06:39:22.269Z,95.50
2019-02-08T06:41:52.624Z,95.50
2019-02-08T06:44:23.144Z,95.60
2019-02-08T06:46:53.524Z,95.40
2019-02-08T06:49:23.892Z,95.30
2019-02-08T06:51:54.620Z,95.40
2019-02-08T06:54:24.910Z,95.30
2019-02-08T06:57:26.546Z,95.20
2019-02-08T07:00:04.654Z,95.10
2019-02-08T07:02:58.492Z,95.00
2019-02-08T07:05:50.834Z,94.90
2019-02-08T07:08:55.182Z,94.80
2019-02-08T07:11:56.294Z,94.50
2019-02-08T07:14:58.975Z,94.40
2019-02-08T07:18:00.134Z,94.30
2019-02-08T07:20:45.622Z,94.10
2019-02-08T07:23:34.098Z,94.00
2019-02-08T07:26:26.425Z,93.90
2019-02-08T07:29:14.394Z,93.90
2019-02-08T07:32:09.434Z,93.80
2019-02-08T07:35:08.020Z,94.00
2019-02-08T07:38:06.338Z,93.40
2019-02-08T07:41:02.988Z,93.10
2019-02-08T07:43:48.630Z,93.20
2019-02-08T07:46:44.764Z,93.20
2019-02-08T07:49:34.301Z,92.90
2019-02-08T07:52:24.084Z,92.90
2019-02-08T07:55:26.198Z,92.80
2019-02-08T07:58:12.885Z,92.40
2019-02-08T08:01:06.218Z,92.40
2019-02-08T08:04:01.265Z,92.40
2019-02-08T08:06:51.120Z,92.20
2019-02-08T08:09:37.476Z,92.10
2019-02-08T08:12:26.858Z,91.80
2019-02-08T08:15:05.973Z,91.60
2019-02-08T08:18:08.585Z,91.30
2019-02-08T08:20:56.406Z,91.00
2019-02-08T08:23:46.698Z,91.10
2019-02-08T08:26:41.572Z,90.40
2019-02-08T08:29:22.826Z,89.80
2019-02-08T08:32:21.056Z,88.00
2019-02-08T08:35:07.462Z,87.60
2019-02-08T08:37:59.492Z,87.60
2019-02-08T08:41:13.702Z,87.30
2019-02-08T08:44:18.286Z,86.20
2019-02-08T08:47:31.568Z,86.50
2019-02-08T08:50:52.748Z,85.40
2019-02-08T08:54:15.985Z,83.90
2019-02-08T08:57:23.852Z,81.00
2019-02-08T09:00:44.769Z,77.50
2019-02-08T09:03:35.204Z,75.20
2019-02-08T09:06:29.246Z,72.00
2019-02-08T09:09:33.413Z,68.90
2019-02-08T09:12:26.945Z,65.30
2019-02-08T09:15:27.511Z,60.70
2019-02-08T09:18:30.553Z,59.20
2019-02-08T09:21:51.230Z,56.80
2019-02-08T09:25:03.016Z,55.50
2019-02-08T09:28:25.040Z,53.60
2019-02-08T09:31:51.916Z,52.20
2019-02-08T09:34:57.937Z,51.20
2019-02-08T09:38:12.292Z,50.40
2019-02-08T09:41:30.977Z,49.30
2019-02-08T09:44:38.168Z,47.90
2019-02-08T09:47:57.470Z,48.10
2019-02-08T09:51:24.403Z,47.90
2019-02-08T09:54:21.540Z,47.40
2019-02-08T09:57:49.612Z,47.10
2019-02-08T10:01:09.090Z,46.70
2019-02-08T10:04:45.544Z,47.30
2019-02-08T10:07:40.580Z,45.40
2019-02-08T10:10:53.811Z,44.90
2019-02-08T10:14:15.372Z,44.60
2019-02-08T10:17:21.144Z,44.60
2019-02-08T10:20:40.222Z,43.80
2019-02-08T10:23:57.258Z,45.00
2019-02-08T10:27:19.524Z,44.60
2019-02-08T10:30:25.494Z,44.20
2019-02-08T10:33:39.435Z,43.30
2019-02-08T10:36:52.285Z,43.70
2019-02-08T10:39:58.564Z,43.20
2019-02-08T10:42:53.926Z,43.30
2019-02-08T10:45:50.259Z,43.10
2019-02-08T10:48:56.012Z,43.50
2019-02-08T10:52:31.625Z,42.40
2019-02-08T10:55:51.712Z,43.00
2019-02-08T10:58:58.812Z,42.90
2019-02-08T11:02:34.469Z,43.20
2019-02-08T11:05:39.606Z,42.90
2019-02-08T11:08:52.098Z,43.30
2019-02-08T11:11:57.125Z,43.60
2019-02-08T11:15:20.320Z,43.80
2019-02-08T11:18:39.524Z,45.10
2019-02-08T11:21:09.987Z,46.60
2019-02-08T11:23:40.372Z,47.90
2019-02-08T11:26:10.736Z,48.90
2019-02-08T11:28:41.150Z,50.00
2019-02-08T11:31:11.505Z,51.20
2019-02-08T11:33:41.938Z,52.50
2019-02-08T11:36:12.389Z,53.80
2019-02-08T11:38:42.778Z,54.50
2019-02-08T11:41:13.282Z,55.30
2019-02-08T11:43:43.602Z,56.20
2019-02-08T11:46:13.999Z,57.10
2019-02-08T11:48:44.404Z,58.00
2019-02-08T11:51:14.907Z,58.70
2019-02-08T11:53:46.899Z,59.50
2019-02-08T11:56:17.273Z,60.10
2019-02-08T11:58:47.655Z,60.80
2019-02-08T12:01:17.999Z,61.50
2019-02-08T12:03:48.387Z,62.30
2019-02-08T12:06:18.773Z,63.40
2019-02-08T12:08:49.117Z,64.40
2019-02-08T12:11:19.484Z,65.30
2019-02-08T12:13:49.858Z,65.60
2019-02-08T12:16:20.188Z,65.90
2019-02-08T12:18:50.544Z,66.40
2019-02-08T12:21:21.230Z,66.90
2019-02-08T12:23:52.309Z,67.50
2019-02-08T12:26:22.644Z,68.20
2019-02-08T12:28:53.013Z,68.50
2019-02-08T12:31:23.388Z,69.00
2019-02-08T12:33:53.772Z,69.10
2019-02-08T12:36:24.112Z,69.50
2019-02-08T12:38:54.482Z,69.70
2019-02-08T12:41:24.832Z,69.80
2019-02-08T12:43:55.323Z,70.10
2019-02-08T12:46:25.676Z,70.30
2019-02-08T12:48:56.021Z,70.40
2019-02-08T12:51:26.344Z,70.60
2019-02-08T12:53:56.740Z,70.50
2019-02-08T12:56:27.209Z,70.20
2019-02-08T12:58:57.512Z,69.60
2019-02-08T13:01:27.898Z,69.30
2019-02-08T13:03:58.228Z,68.50
2019-02-08T13:06:28.698Z,68.20
2019-02-08T13:08:59.211Z,67.50
2019-02-08T13:11:31.232Z,67.50
2019-02-08T13:14:01.550Z,66.90
2019-02-08T13:16:31.934Z,66.00
2019-02-08T13:19:02.340Z,65.70
2019-02-08T13:21:32.720Z,66.50
2019-02-08T13:24:03.466Z,65.70
2019-02-08T13:26:33.801Z,66.10
2019-02-08T13:29:04.242Z,66.00
2019-02-08T13:31:34.588Z,66.50
2019-02-08T13:34:08.165Z,66.60
2019-02-08T13:36:38.538Z,66.80
2019-02-08T13:39:10.047Z,66.50
2019-02-08T13:41:41.578Z,66.50
2019-02-08T13:44:11.939Z,66.50
2019-02-08T13:46:42.362Z,66.60
2019-02-08T13:49:12.764Z,66.90
2019-02-08T13:51:43.116Z,66.80
2019-02-08T13:54:14.232Z,67.10
2019-02-08T13:56:44.594Z,67.20
2019-02-08T13:59:14.942Z,67.30
2019-02-08T14:01:45.288Z,68.50
2019-02-08T14:04:15.625Z,67.80
2019-02-08T14:06:45.996Z,68.10
2019-02-08T14:09:16.588Z,68.40
2019-02-08T14:11:46.945Z,69.00
2019-02-08T14:14:17.320Z,69.40
2019-02-08T14:16:47.754Z,69.70
2019-02-08T14:19:18.139Z,70.20
2019-02-08T14:21:48.571Z,70.50
2019-02-08T14:24:18.962Z,70.60
2019-02-08T14:26:49.434Z,70.60
2019-02-08T14:29:19.918Z,70.50
2019-02-08T14:31:50.320Z,70.50
2019-02-08T14:34:20.685Z,70.60
2019-02-08T14:36:51.281Z,71.20
2019-02-08T14:39:21.921Z,71.80
2019-02-08T14:41:52.515Z,72.40
2019-02-08T14:44:22.900Z,72.30
2019-02-08T14:46:53.220Z,72.70
2019-02-08T14:49:23.618Z,73.00
2019-02-08T14:51:54.016Z,73.30
2019-02-08T14:54:25.161Z,73.70
2019-02-08T14:56:55.458Z,74.00
2019-02-08T14:59:25.779Z,74.30
2019-02-08T15:01:56.169Z,74.70
2019-02-08T15:04:37.163Z,75.00
2019-02-08T15:07:09.165Z,75.10
2019-02-08T15:09:39.776Z,75.70
2019-02-08T15:12:10.108Z,76.10
2019-02-08T15:14:40.468Z,77.40
2019-02-08T15:17:23.935Z,76.80
2019-02-08T15:19:54.553Z,77.30
2019-02-08T15:22:24.926Z,77.50
2019-02-08T15:24:55.941Z,77.90
2019-02-08T15:27:26.357Z,78.20
2019-02-08T15:29:56.744Z,78.30
2019-02-08T15:32:27.354Z,78.70
2019-02-08T15:34:57.670Z,79.10
2019-02-08T15:37:28.012Z,79.40
2019-02-08T15:39:58.495Z,80.10
2019-02-08T15:42:28.931Z,80.50
2019-02-08T15:44:59.353Z,80.80
2019-02-08T15:47:29.816Z,81.00
2019-02-08T15:50:00.233Z,81.50
2019-02-08T15:52:30.530Z,82.00
2019-02-08T15:55:02.506Z,82.20
2019-02-08T15:57:34.016Z,82.70
2019-02-08T16:00:05.381Z,83.10
2019-02-08T16:02:35.806Z,83.40
2019-02-08T16:05:08.228Z,83.60
2019-02-08T16:07:38.588Z,83.70
2019-02-08T16:10:09.568Z,84.20
2019-02-08T16:12:39.905Z,84.30
2019-02-08T16:15:14.665Z,84.90
2019-02-08T16:17:45.090Z,85.20
2019-02-08T16:20:18.840Z,85.70
2019-02-08T16:22:49.452Z,86.20
2019-02-08T16:25:21.476Z,86.50
2019-02-08T16:27:51.862Z,86.80
2019-02-08T16:30:24.208Z,87.10
2019-02-08T16:32:54.623Z,87.60
2019-02-08T16:35:25.061Z,87.90
2019-02-08T16:37:56.390Z,88.30
2019-02-08T16:40:27.807Z,88.50
2019-02-08T16:42:58.266Z,88.90
2019-02-08T16:45:30.632Z,89.50
2019-02-08T16:48:01.928Z,89.70
2019-02-08T16:50:33.540Z,90.00
2019-02-08T16:53:04.380Z,90.00
2019-02-08T16:55:35.954Z,90.20
2019-02-08T16:58:07.278Z,90.30
2019-02-08T17:00:37.936Z,90.40
2019-02-08T17:03:10.300Z,90.40
2019-02-08T17:05:40.539Z,90.60
2019-02-08T17:08:11.190Z,90.70
2019-02-08T17:10:46.756Z,90.80
2019-02-08T17:13:17.614Z,90.80
2019-02-08T17:15:48.021Z,90.80
2019-02-08T17:18:18.354Z,90.90
2019-02-08T17:20:48.855Z,90.90
2019-02-08T17:23:19.238Z,90.80
2019-02-08T17:25:50.145Z,90.80
2019-02-08T17:28:20.494Z,90.90
2019-02-08T17:30:50.842Z,90.90
2019-02-08T17:33:21.343Z,90.90
2019-02-08T17:35:51.768Z,90.90
2019-02-08T17:38:22.151Z,90.90
2019-02-08T17:40:52.579Z,91.20
2019-02-08T17:43:22.960Z,90.90
2019-02-08T17:45:54.359Z,91.00
2019-02-08T17:48:24.777Z,91.00
2019-02-08T17:50:55.151Z,91.10
2019-02-08T17:53:25.564Z,91.10
2019-02-08T17:55:56.513Z,91.10
2019-02-08T17:58:27.420Z,91.20
2019-02-08T18:00:59.285Z,91.20
2019-02-08T18:03:29.908Z,91.20
2019-02-08T18:06:02.107Z,91.30
2019-02-08T18:08:32.432Z,91.30
2019-02-08T18:11:03.125Z,91.40
2019-02-08T18:13:33.568Z,91.40
2019-02-08T18:16:04.772Z,91.50
2019-02-08T18:18:35.124Z,91.50
2019-02-08T18:21:09.568Z,91.60
2019-02-08T18:23:40.439Z,91.60
2019-02-08T18:26:11.662Z,91.60
2019-02-08T18:28:43.148Z,91.60
2019-02-08T18:31:13.511Z,91.70
2019-02-08T18:33:43.856Z,91.80
2019-02-08T18:36:14.263Z,91.80
2019-02-08T18:38:45.177Z,91.90
2019-02-08T18:41:15.565Z,92.00
2019-02-08T18:43:45.922Z,92.10
2019-02-08T18:46:16.338Z,92.20
2019-02-08T18:48:46.716Z,92.30
2019-02-08T18:51:19.181Z,92.30
2019-02-08T18:53:49.852Z,92.30
2019-02-08T18:56:22.017Z,92.40
2019-02-08T18:58:54.126Z,92.40
2019-02-08T19:01:24.501Z,92.40
2019-02-08T19:03:54.861Z,92.40
2019-02-08T19:06:25.201Z,92.50
2019-02-08T19:08:55.546Z,92.80
2019-02-08T19:11:26.685Z,92.50
2019-02-08T19:13:57.068Z,92.50
2019-02-08T19:16:27.490Z,92.50
2019-02-08T19:18:57.855Z,92.60
2019-02-08T19:21:28.266Z,92.60
2019-02-08T19:23:58.682Z,92.60
2019-02-08T19:26:29.445Z,92.60
2019-02-08T19:29:00.534Z,92.70
2019-02-08T19:31:30.988Z,92.80
2019-02-08T19:34:01.352Z,92.80
2019-02-08T19:36:31.706Z,92.80
2019-02-08T19:39:02.113Z,92.80
2019-02-08T19:41:32.437Z,92.90
2019-02-08T19:44:02.791Z,92.90
2019-02-08T19:46:33.135Z,92.80
2019-02-08T19:49:03.480Z,92.90
2019-02-08T19:51:33.860Z,92.90
2019-02-08T19:54:04.464Z,92.90
2019-02-08T19:56:34.895Z,92.90
2019-02-08T19:59:06.888Z,92.90
2019-02-08T20:01:37.389Z,92.90
2019-02-08T20:04:07.811Z,92.90
2019-02-08T20:06:38.333Z,93.00
2019-02-08T20:18:42.862Z,93.00
2019-02-08T20:21:13.229Z,93.10
2019-02-08T20:23:43.633Z,93.10
2019-02-08T20:26:14.011Z,93.10
2019-02-08T20:28:44.412Z,93.20
2019-02-08T20:31:14.829Z,93.20
2019-02-08T20:33:45.315Z,93.20
2019-02-08T20:36:15.683Z,93.20
2019-02-08T20:38:46.432Z,93.20
2019-02-08T20:41:16.762Z,93.10
2019-02-08T20:43:47.509Z,93.10
2019-02-08T20:46:17.818Z,93.20
2019-02-08T20:48:48.155Z,93.20
2019-02-08T20:51:18.517Z,93.20
2019-02-08T20:53:48.862Z,93.20
2019-02-08T20:56:19.253Z,93.20
2019-02-08T20:58:50.535Z,93.20
2019-02-08T21:01:21.061Z,93.20
2019-02-08T21:03:51.425Z,93.20
2019-02-08T21:06:21.774Z,93.20
2019-02-08T21:08:52.171Z,93.20
2019-02-08T21:11:22.456Z,93.20
2019-02-08T21:13:52.805Z,93.20
2019-02-08T21:16:23.227Z,93.20
2019-02-08T21:18:53.591Z,93.20
2019-02-08T21:21:24.035Z,93.20
2019-02-08T21:23:54.432Z,93.20
2019-02-08T21:26:25.166Z,93.10
2019-02-08T21:28:57.916Z,93.10
2019-02-08T21:31:27.474Z,93.00
2019-02-08T21:33:57.939Z,93.10
2019-02-08T21:36:28.807Z,93.20
2019-02-08T21:39:00.117Z,93.20
2019-02-08T21:41:32.429Z,93.20
2019-02-08T21:44:02.791Z,93.30
2019-02-08T21:46:33.127Z,93.40
2019-02-08T21:49:03.537Z,93.40
2019-02-08T21:51:33.823Z,93.40
2019-02-08T21:54:05.024Z,93.40
2019-02-08T21:56:35.409Z,93.40
2019-02-08T21:59:06.595Z,93.50
2019-02-08T22:01:36.960Z,93.50
2019-02-08T22:04:08.323Z,93.50
2019-02-08T22:06:38.692Z,93.70
2019-02-08T22:09:09.686Z,93.70
2019-02-08T22:11:41.031Z,93.70
2019-02-08T22:14:11.378Z,93.80
2019-02-08T22:16:41.752Z,93.80
2019-02-08T22:19:13.082Z,93.90
2019-02-08T22:21:43.459Z,93.80
2019-02-08T22:24:13.795Z,93.90
2019-02-08T22:26:44.219Z,94.00
2019-02-08T22:29:14.581Z,94.10
2019-02-08T22:31:44.972Z,94.10
2019-02-08T22:34:15.320Z,94.10
2019-02-08T22:36:45.758Z,94.20
2019-02-08T22:39:16.160Z,94.10
2019-02-08T22:41:46.544Z,94.30
2019-02-08T22:44:16.870Z,94.40
2019-02-08T22:46:47.198Z,94.30
2019-02-08T22:49:18.803Z,94.40
2019-02-08T22:51:49.173Z,94.40
2019-02-08T22:54:20.648Z,94.50
2019-02-08T22:56:50.996Z,94.60
2019-02-08T22:59:22.296Z,94.60
2019-02-08T23:01:53.748Z,94.70
2019-02-08T23:04:24.672Z,94.70
2019-02-08T23:06:55.066Z,94.80
2019-02-08T23:09:25.572Z,94.90
2019-02-08T23:11:55.864Z,94.90
2019-02-08T23:14:26.232Z,95.00
2019-02-08T23:16:56.828Z,95.00
2019-02-08T23:19:28.042Z,95.10
2019-02-08T23:21:58.446Z,95.10
2019-02-08T23:24:28.845Z,95.20
2019-02-08T23:27:00.179Z,95.20
2019-02-08T23:29:31.573Z,95.20
2019-02-08T23:32:01.917Z,95.30
2019-02-08T23:34:32.260Z,95.30
2019-02-08T23:37:02.650Z,95.30
2019-02-08T23:39:33.048Z,95.30
2019-02-08T23:42:03.418Z,95.40
2019-02-08T23:44:34.110Z,95.40
2019-02-08T23:47:04.467Z,95.40
2019-02-08T23:49:34.925Z,95.50
2019-02-08T23:52:05.240Z,95.50
2019-02-08T23:54:35.652Z,95.50
2019-02-08T23:57:06.165Z,95.60
2019-02-08T23:59:38.061Z,95.60
